sensor_id;sensor_type;location;lat;lon;timestamp;P1;durP1;ratioP1;P2;durP2;ratioP2
4389;SDS011;2209;48.982;8.406;2023-03-23T00:01:06;1.30;;;1.20;;
4389;SDS011;2209;48.982;8.406;2023-03-23T00:03:32;1.47;;;1.10;;
4389;SDS011;2209;48.982;8.406;2023-03-23T00:05:55;1.00;;;1.00;;
4389;SDS011;2209;48.982;8.406;2023-03-23T00:08:19;2.20;;;1.50;;
4389;SDS011;2209;48.982;8.406;2023-03-23T00:10:42;3.17;;;1.53;;
4389;SDS011;2209;48.982;8.406;2023-03-23T00:13:04;2.60;;;0.93;;
4389;SDS011;2209;48.982;8.406;2023-03-23T00:15:26;1.47;;;1.37;;
4389;SDS011;2209;48.982;8.406;2023-03-23T00:17:50;1.50;;;1.40;;
4389;SDS011;2209;48.982;8.406;2023-03-23T00:20:14;2.10;;;2.00;;
4389;SDS011;2209;48.982;8.406;2023-03-23T00:22:37;1.47;;;1.37;;
4389;SDS011;2209;48.982;8.406;2023-03-23T00:25:01;1.40;;;1.30;;
4389;SDS011;2209;48.982;8.406;2023-03-23T00:27:23;2.53;;;1.40;;
4389;SDS011;2209;48.982;8.406;2023-03-23T00:29:45;1.93;;;1.50;;
4389;SDS011;2209;48.982;8.406;2023-03-23T00:32:08;1.67;;;1.10;;
4389;SDS011;2209;48.982;8.406;2023-03-23T00:34:33;1.90;;;1.30;;
4389;SDS011;2209;48.982;8.406;2023-03-23T00:36:56;1.43;;;1.33;;
4389;SDS011;2209;48.982;8.406;2023-03-23T00:39:20;1.60;;;1.50;;
4389;SDS011;2209;48.982;8.406;2023-03-23T00:41:45;1.80;;;1.70;;
4389;SDS011;2209;48.982;8.406;2023-03-23T00:44:08;3.87;;;1.40;;
4389;SDS011;2209;48.982;8.406;2023-03-23T00:46:30;1.50;;;1.40;;
4389;SDS011;2209;48.982;8.406;2023-03-23T00:48:52;2.43;;;1.33;;
4389;SDS011;2209;48.982;8.406;2023-03-23T00:51:14;1.40;;;1.30;;
4389;SDS011;2209;48.982;8.406;2023-03-23T00:53:38;1.50;;;1.40;;
4389;SDS011;2209;48.982;8.406;2023-03-23T00:56:01;2.07;;;1.60;;
4389;SDS011;2209;48.982;8.406;2023-03-23T00:58:23;1.40;;;1.30;;
4389;SDS011;2209;48.982;8.406;2023-03-23T01:00:46;1.43;;;1.33;;
4389;SDS011;2209;48.982;8.406;2023-03-23T01:03:08;1.70;;;1.60;;
4389;SDS011;2209;48.982;8.406;2023-03-23T01:05:33;2.40;;;1.40;;
4389;SDS011;2209;48.982;8.406;2023-03-23T01:07:56;1.23;;;1.10;;
4389;SDS011;2209;48.982;8.406;2023-03-23T01:10:19;1.27;;;1.20;;
4389;SDS011;2209;48.982;8.406;2023-03-23T01:12:42;1.27;;;1.17;;
4389;SDS011;2209;48.982;8.406;2023-03-23T01:15:05;3.27;;;1.40;;
4389;SDS011;2209;48.982;8.406;2023-03-23T01:17:27;1.57;;;1.43;;
4389;SDS011;2209;48.982;8.406;2023-03-23T01:19:50;3.13;;;1.53;;
4389;SDS011;2209;48.982;8.406;2023-03-23T01:22:12;4.13;;;1.50;;
4389;SDS011;2209;48.982;8.406;2023-03-23T01:24:34;1.50;;;1.40;;
4389;SDS011;2209;48.982;8.406;2023-03-23T01:26:57;1.93;;;1.60;;
4389;SDS011;2209;48.982;8.406;2023-03-23T01:29:22;1.63;;;1.53;;
4389;SDS011;2209;48.982;8.406;2023-03-23T01:31:44;1.80;;;1.70;;
4389;SDS011;2209;48.982;8.406;2023-03-23T01:34:06;1.30;;;1.20;;
4389;SDS011;2209;48.982;8.406;2023-03-23T01:36:29;1.83;;;1.73;;
4389;SDS011;2209;48.982;8.406;2023-03-23T01:38:52;1.30;;;1.20;;
4389;SDS011;2209;48.982;8.406;2023-03-23T01:41:15;1.40;;;1.30;;
4389;SDS011;2209;48.982;8.406;2023-03-23T01:46:23;2.00;;;1.80;;
4389;SDS011;2209;48.982;8.406;2023-03-23T01:48:46;1.83;;;1.37;;
4389;SDS011;2209;48.982;8.406;2023-03-23T01:51:09;1.60;;;1.50;;
4389;SDS011;2209;48.982;8.406;2023-03-23T01:53:36;2.13;;;1.50;;
4389;SDS011;2209;48.982;8.406;2023-03-23T01:56:01;2.40;;;1.50;;
4389;SDS011;2209;48.982;8.406;2023-03-23T01:58:24;3.50;;;1.70;;
4389;SDS011;2209;48.982;8.406;2023-03-23T02:00:50;1.80;;;1.70;;
4389;SDS011;2209;48.982;8.406;2023-03-23T02:03:14;1.93;;;1.73;;
4389;SDS011;2209;48.982;8.406;2023-03-23T02:05:38;4.10;;;1.80;;
4389;SDS011;2209;48.982;8.406;2023-03-23T02:08:02;2.17;;;1.50;;
4389;SDS011;2209;48.982;8.406;2023-03-23T02:10:29;1.93;;;1.50;;
4389;SDS011;2209;48.982;8.406;2023-03-23T02:12:52;2.30;;;1.93;;
4389;SDS011;2209;48.982;8.406;2023-03-23T02:15:14;2.50;;;1.50;;
4389;SDS011;2209;48.982;8.406;2023-03-23T02:17:38;1.77;;;1.67;;
4389;SDS011;2209;48.982;8.406;2023-03-23T02:20:09;3.30;;;2.10;;
4389;SDS011;2209;48.982;8.406;2023-03-23T02:22:43;1.73;;;1.63;;
4389;SDS011;2209;48.982;8.406;2023-03-23T02:25:29;1.50;;;1.40;;
4389;SDS011;2209;48.982;8.406;2023-03-23T02:28:05;1.20;;;1.13;;
4389;SDS011;2209;48.982;8.406;2023-03-23T02:30:53;1.47;;;1.40;;
4389;SDS011;2209;48.982;8.406;2023-03-23T02:33:37;1.60;;;1.50;;
4389;SDS011;2209;48.982;8.406;2023-03-23T02:36:04;1.30;;;1.20;;
4389;SDS011;2209;48.982;8.406;2023-03-23T02:38:37;1.67;;;1.57;;
4389;SDS011;2209;48.982;8.406;2023-03-23T02:41:04;1.60;;;1.50;;
4389;SDS011;2209;48.982;8.406;2023-03-23T02:43:27;1.80;;;1.70;;
4389;SDS011;2209;48.982;8.406;2023-03-23T02:45:53;1.90;;;1.67;;
4389;SDS011;2209;48.982;8.406;2023-03-23T02:48:18;1.83;;;1.40;;
4389;SDS011;2209;48.982;8.406;2023-03-23T02:50:45;1.40;;;1.30;;
4389;SDS011;2209;48.982;8.406;2023-03-23T02:53:10;1.40;;;1.30;;
4389;SDS011;2209;48.982;8.406;2023-03-23T02:55:35;1.70;;;1.60;;
4389;SDS011;2209;48.982;8.406;2023-03-23T02:58:02;2.23;;;1.50;;
4389;SDS011;2209;48.982;8.406;2023-03-23T03:00:24;2.30;;;1.60;;
4389;SDS011;2209;48.982;8.406;2023-03-23T03:02:47;1.60;;;1.50;;
4389;SDS011;2209;48.982;8.406;2023-03-23T03:05:15;1.70;;;1.60;;
4389;SDS011;2209;48.982;8.406;2023-03-23T03:07:47;1.73;;;1.37;;
4389;SDS011;2209;48.982;8.406;2023-03-23T03:10:17;1.40;;;1.30;;
4389;SDS011;2209;48.982;8.406;2023-03-23T03:12:46;1.90;;;1.63;;
4389;SDS011;2209;48.982;8.406;2023-03-23T03:15:18;1.77;;;1.30;;
4389;SDS011;2209;48.982;8.406;2023-03-23T03:17:51;2.53;;;1.97;;
4389;SDS011;2209;48.982;8.406;2023-03-23T03:20:19;1.53;;;1.40;;
4389;SDS011;2209;48.982;8.406;2023-03-23T03:22:43;2.00;;;1.90;;
4389;SDS011;2209;48.982;8.406;2023-03-23T03:25:09;1.93;;;1.23;;
4389;SDS011;2209;48.982;8.406;2023-03-23T03:27:34;1.57;;;1.47;;
4389;SDS011;2209;48.982;8.406;2023-03-23T03:29:56;1.80;;;1.70;;
4389;SDS011;2209;48.982;8.406;2023-03-23T03:32:25;2.20;;;1.50;;
4389;SDS011;2209;48.982;8.406;2023-03-23T03:34:53;1.57;;;1.47;;
4389;SDS011;2209;48.982;8.406;2023-03-23T03:37:15;2.17;;;2.07;;
4389;SDS011;2209;48.982;8.406;2023-03-23T03:39:39;1.67;;;1.40;;
4389;SDS011;2209;48.982;8.406;2023-03-23T03:42:02;1.80;;;1.70;;
4389;SDS011;2209;48.982;8.406;2023-03-23T03:44:25;1.77;;;1.67;;
4389;SDS011;2209;48.982;8.406;2023-03-23T03:46:47;2.60;;;1.73;;
4389;SDS011;2209;48.982;8.406;2023-03-23T03:49:10;1.83;;;1.73;;
4389;SDS011;2209;48.982;8.406;2023-03-23T03:51:33;2.50;;;1.30;;
4389;SDS011;2209;48.982;8.406;2023-03-23T03:53:56;1.77;;;1.53;;
4389;SDS011;2209;48.982;8.406;2023-03-23T03:56:19;2.87;;;1.70;;
4389;SDS011;2209;48.982;8.406;2023-03-23T03:58:44;1.83;;;1.73;;
4389;SDS011;2209;48.982;8.406;2023-03-23T04:01:06;2.27;;;1.47;;
4389;SDS011;2209;48.982;8.406;2023-03-23T04:03:30;1.87;;;1.60;;
4389;SDS011;2209;48.982;8.406;2023-03-23T04:05:52;2.80;;;1.70;;
4389;SDS011;2209;48.982;8.406;2023-03-23T04:08:18;1.70;;;1.60;;
4389;SDS011;2209;48.982;8.406;2023-03-23T04:10:42;2.00;;;1.90;;
4389;SDS011;2209;48.982;8.406;2023-03-23T04:13:06;2.70;;;1.40;;
4389;SDS011;2209;48.982;8.406;2023-03-23T04:15:31;1.67;;;1.57;;
4389;SDS011;2209;48.982;8.406;2023-03-23T04:17:53;1.60;;;1.50;;
4389;SDS011;2209;48.982;8.406;2023-03-23T04:20:17;2.10;;;1.90;;
4389;SDS011;2209;48.982;8.406;2023-03-23T04:22:39;1.83;;;1.73;;
4389;SDS011;2209;48.982;8.406;2023-03-23T04:25:04;1.83;;;1.60;;
4389;SDS011;2209;48.982;8.406;2023-03-23T04:27:27;1.97;;;1.87;;
4389;SDS011;2209;48.982;8.406;2023-03-23T04:29:49;1.60;;;1.50;;
4389;SDS011;2209;48.982;8.406;2023-03-23T04:32:13;2.97;;;1.70;;
4389;SDS011;2209;48.982;8.406;2023-03-23T04:34:35;2.37;;;1.47;;
4389;SDS011;2209;48.982;8.406;2023-03-23T04:36:57;5.87;;;2.23;;
4389;SDS011;2209;48.982;8.406;2023-03-23T04:39:19;2.80;;;2.30;;
4389;SDS011;2209;48.982;8.406;2023-03-23T04:41:41;3.00;;;1.77;;
4389;SDS011;2209;48.982;8.406;2023-03-23T04:44:04;2.33;;;2.00;;
4389;SDS011;2209;48.982;8.406;2023-03-23T04:46:27;3.23;;;1.77;;
4389;SDS011;2209;48.982;8.406;2023-03-23T04:48:51;1.93;;;1.83;;
4389;SDS011;2209;48.982;8.406;2023-03-23T04:51:15;1.80;;;1.70;;
4389;SDS011;2209;48.982;8.406;2023-03-23T04:53:37;1.70;;;1.60;;
4389;SDS011;2209;48.982;8.406;2023-03-23T04:55:59;1.67;;;1.50;;
4389;SDS011;2209;48.982;8.406;2023-03-23T04:58:22;2.90;;;2.00;;
4389;SDS011;2209;48.982;8.406;2023-03-23T05:00:45;1.70;;;1.60;;
4389;SDS011;2209;48.982;8.406;2023-03-23T05:03:09;2.30;;;2.10;;
4389;SDS011;2209;48.982;8.406;2023-03-23T05:05:33;2.20;;;2.00;;
4389;SDS011;2209;48.982;8.406;2023-03-23T05:07:56;2.20;;;2.00;;
4389;SDS011;2209;48.982;8.406;2023-03-23T05:10:18;2.87;;;1.67;;
4389;SDS011;2209;48.982;8.406;2023-03-23T05:12:40;1.73;;;1.63;;
4389;SDS011;2209;48.982;8.406;2023-03-23T05:15:04;2.73;;;1.70;;
4389;SDS011;2209;48.982;8.406;2023-03-23T05:17:27;2.07;;;1.80;;
4389;SDS011;2209;48.982;8.406;2023-03-23T05:19:50;2.90;;;2.13;;
4389;SDS011;2209;48.982;8.406;2023-03-23T05:22:14;2.60;;;1.90;;
4389;SDS011;2209;48.982;8.406;2023-03-23T05:24:36;2.03;;;1.87;;
4389;SDS011;2209;48.982;8.406;2023-03-23T05:26:59;1.87;;;1.63;;
4389;SDS011;2209;48.982;8.406;2023-03-23T05:29:25;2.07;;;1.87;;
4389;SDS011;2209;48.982;8.406;2023-03-23T05:31:50;2.33;;;2.13;;
4389;SDS011;2209;48.982;8.406;2023-03-23T05:34:13;2.00;;;1.90;;
4389;SDS011;2209;48.982;8.406;2023-03-23T05:36:36;2.00;;;1.80;;
4389;SDS011;2209;48.982;8.406;2023-03-23T05:38:59;2.20;;;2.10;;
4389;SDS011;2209;48.982;8.406;2023-03-23T05:41:24;2.70;;;2.47;;
4389;SDS011;2209;48.982;8.406;2023-03-23T05:43:46;2.03;;;1.93;;
4389;SDS011;2209;48.982;8.406;2023-03-23T05:46:08;2.17;;;2.07;;
4389;SDS011;2209;48.982;8.406;2023-03-23T05:48:30;2.93;;;1.93;;
4389;SDS011;2209;48.982;8.406;2023-03-23T05:50:52;2.90;;;1.87;;
4389;SDS011;2209;48.982;8.406;2023-03-23T05:53:14;2.47;;;2.27;;
4389;SDS011;2209;48.982;8.406;2023-03-23T05:55:37;4.70;;;2.50;;
4389;SDS011;2209;48.982;8.406;2023-03-23T05:58:00;2.20;;;2.00;;
4389;SDS011;2209;48.982;8.406;2023-03-23T06:00:22;2.37;;;2.17;;
4389;SDS011;2209;48.982;8.406;2023-03-23T06:02:44;1.67;;;1.57;;
4389;SDS011;2209;48.982;8.406;2023-03-23T06:05:06;2.60;;;2.10;;
4389;SDS011;2209;48.982;8.406;2023-03-23T06:07:29;2.63;;;1.93;;
4389;SDS011;2209;48.982;8.406;2023-03-23T06:09:51;2.53;;;2.07;;
4389;SDS011;2209;48.982;8.406;2023-03-23T06:12:15;4.73;;;2.90;;
4389;SDS011;2209;48.982;8.406;2023-03-23T06:14:40;3.17;;;2.50;;
4389;SDS011;2209;48.982;8.406;2023-03-23T06:17:02;2.73;;;2.53;;
4389;SDS011;2209;48.982;8.406;2023-03-23T06:19:24;3.93;;;2.70;;
4389;SDS011;2209;48.982;8.406;2023-03-23T06:21:47;3.20;;;2.83;;
4389;SDS011;2209;48.982;8.406;2023-03-23T06:24:10;6.40;;;2.90;;
4389;SDS011;2209;48.982;8.406;2023-03-23T06:26:33;3.50;;;3.00;;
4389;SDS011;2209;48.982;8.406;2023-03-23T06:28:58;2.70;;;2.50;;
4389;SDS011;2209;48.982;8.406;2023-03-23T06:31:20;3.13;;;2.40;;
4389;SDS011;2209;48.982;8.406;2023-03-23T06:33:42;3.17;;;1.97;;
4389;SDS011;2209;48.982;8.406;2023-03-23T06:36:05;4.73;;;2.63;;
4389;SDS011;2209;48.982;8.406;2023-03-23T06:38:28;2.80;;;2.60;;
4389;SDS011;2209;48.982;8.406;2023-03-23T06:40:51;2.70;;;2.50;;
4389;SDS011;2209;48.982;8.406;2023-03-23T06:43:13;2.67;;;2.47;;
4389;SDS011;2209;48.982;8.406;2023-03-23T06:45:36;6.20;;;2.63;;
4389;SDS011;2209;48.982;8.406;2023-03-23T06:47:59;2.77;;;2.57;;
4389;SDS011;2209;48.982;8.406;2023-03-23T06:50:21;3.27;;;2.77;;
4389;SDS011;2209;48.982;8.406;2023-03-23T06:52:44;3.30;;;2.37;;
4389;SDS011;2209;48.982;8.406;2023-03-23T06:55:07;2.73;;;1.90;;
4389;SDS011;2209;48.982;8.406;2023-03-23T06:57:29;2.10;;;1.90;;
4389;SDS011;2209;48.982;8.406;2023-03-23T06:59:51;6.93;;;2.37;;
4389;SDS011;2209;48.982;8.406;2023-03-23T07:02:15;2.20;;;2.00;;
4389;SDS011;2209;48.982;8.406;2023-03-23T07:04:37;2.60;;;2.40;;
4389;SDS011;2209;48.982;8.406;2023-03-23T07:07:00;2.73;;;2.23;;
4389;SDS011;2209;48.982;8.406;2023-03-23T07:09:22;3.77;;;2.40;;
4389;SDS011;2209;48.982;8.406;2023-03-23T07:11:45;4.87;;;1.73;;
4389;SDS011;2209;48.982;8.406;2023-03-23T07:14:07;4.40;;;2.40;;
4389;SDS011;2209;48.982;8.406;2023-03-23T07:16:30;4.13;;;2.70;;
4389;SDS011;2209;48.982;8.406;2023-03-23T07:18:53;2.47;;;2.27;;
4389;SDS011;2209;48.982;8.406;2023-03-23T07:21:15;2.87;;;2.63;;
4389;SDS011;2209;48.982;8.406;2023-03-23T07:23:37;3.03;;;2.20;;
4389;SDS011;2209;48.982;8.406;2023-03-23T07:26:00;2.43;;;2.27;;
4389;SDS011;2209;48.982;8.406;2023-03-23T07:28:23;3.50;;;3.20;;
4389;SDS011;2209;48.982;8.406;2023-03-23T07:30:45;2.83;;;2.50;;
4389;SDS011;2209;48.982;8.406;2023-03-23T07:33:08;5.50;;;2.57;;
4389;SDS011;2209;48.982;8.406;2023-03-23T07:35:32;4.30;;;2.97;;
4389;SDS011;2209;48.982;8.406;2023-03-23T07:37:54;3.40;;;3.10;;
4389;SDS011;2209;48.982;8.406;2023-03-23T07:40:17;2.90;;;2.17;;
4389;SDS011;2209;48.982;8.406;2023-03-23T07:42:41;2.30;;;2.20;;
4389;SDS011;2209;48.982;8.406;2023-03-23T07:45:04;3.97;;;2.70;;
4389;SDS011;2209;48.982;8.406;2023-03-23T07:47:27;2.40;;;2.17;;
4389;SDS011;2209;48.982;8.406;2023-03-23T07:49:49;3.00;;;2.63;;
4389;SDS011;2209;48.982;8.406;2023-03-23T07:52:13;6.57;;;2.80;;
4389;SDS011;2209;48.982;8.406;2023-03-23T07:54:35;2.80;;;2.60;;
4389;SDS011;2209;48.982;8.406;2023-03-23T07:56:57;4.63;;;2.70;;
4389;SDS011;2209;48.982;8.406;2023-03-23T07:59:19;3.03;;;2.50;;
4389;SDS011;2209;48.982;8.406;2023-03-23T08:01:42;6.70;;;2.50;;
4389;SDS011;2209;48.982;8.406;2023-03-23T08:04:04;3.43;;;2.23;;
4389;SDS011;2209;48.982;8.406;2023-03-23T08:06:26;4.03;;;3.03;;
4389;SDS011;2209;48.982;8.406;2023-03-23T08:08:50;2.80;;;2.60;;
4389;SDS011;2209;48.982;8.406;2023-03-23T08:11:13;2.57;;;2.37;;
4389;SDS011;2209;48.982;8.406;2023-03-23T08:13:35;4.10;;;2.67;;
4389;SDS011;2209;48.982;8.406;2023-03-23T08:15:58;5.13;;;2.63;;
4389;SDS011;2209;48.982;8.406;2023-03-23T08:18:23;2.40;;;2.20;;
4389;SDS011;2209;48.982;8.406;2023-03-23T08:20:46;3.20;;;2.20;;
4389;SDS011;2209;48.982;8.406;2023-03-23T08:23:09;4.13;;;2.50;;
4389;SDS011;2209;48.982;8.406;2023-03-23T08:25:33;3.53;;;2.70;;
4389;SDS011;2209;48.982;8.406;2023-03-23T08:27:55;3.53;;;2.60;;
4389;SDS011;2209;48.982;8.406;2023-03-23T08:30:19;3.07;;;2.87;;
4389;SDS011;2209;48.982;8.406;2023-03-23T08:32:42;3.27;;;2.30;;
4389;SDS011;2209;48.982;8.406;2023-03-23T08:35:06;2.40;;;1.93;;
4389;SDS011;2209;48.982;8.406;2023-03-23T08:37:29;2.83;;;2.63;;
4389;SDS011;2209;48.982;8.406;2023-03-23T08:39:52;2.13;;;1.93;;
4389;SDS011;2209;48.982;8.406;2023-03-23T08:42:16;3.13;;;2.03;;
4389;SDS011;2209;48.982;8.406;2023-03-23T08:44:38;2.43;;;2.23;;
4389;SDS011;2209;48.982;8.406;2023-03-23T08:47:01;2.07;;;1.87;;
4389;SDS011;2209;48.982;8.406;2023-03-23T08:49:25;6.17;;;1.93;;
4389;SDS011;2209;48.982;8.406;2023-03-23T08:51:47;4.53;;;1.90;;
4389;SDS011;2209;48.982;8.406;2023-03-23T08:54:09;1.80;;;1.60;;
4389;SDS011;2209;48.982;8.406;2023-03-23T08:56:31;2.17;;;2.00;;
4389;SDS011;2209;48.982;8.406;2023-03-23T08:58:54;3.63;;;1.87;;
4389;SDS011;2209;48.982;8.406;2023-03-23T09:01:17;2.73;;;1.80;;
4389;SDS011;2209;48.982;8.406;2023-03-23T09:03:39;3.27;;;1.70;;
4389;SDS011;2209;48.982;8.406;2023-03-23T09:06:02;3.03;;;2.20;;
4389;SDS011;2209;48.982;8.406;2023-03-23T09:08:25;2.23;;;1.70;;
4389;SDS011;2209;48.982;8.406;2023-03-23T09:10:49;2.03;;;1.70;;
4389;SDS011;2209;48.982;8.406;2023-03-23T09:13:11;1.77;;;1.67;;
4389;SDS011;2209;48.982;8.406;2023-03-23T09:15:35;7.33;;;2.13;;
4389;SDS011;2209;48.982;8.406;2023-03-23T09:17:57;1.80;;;1.60;;
4389;SDS011;2209;48.982;8.406;2023-03-23T09:20:20;1.60;;;1.50;;
4389;SDS011;2209;48.982;8.406;2023-03-23T09:22:44;1.70;;;1.60;;
4389;SDS011;2209;48.982;8.406;2023-03-23T09:25:08;1.60;;;1.50;;
4389;SDS011;2209;48.982;8.406;2023-03-23T09:27:32;4.10;;;1.80;;
4389;SDS011;2209;48.982;8.406;2023-03-23T09:29:54;1.57;;;1.47;;
4389;SDS011;2209;48.982;8.406;2023-03-23T09:32:18;1.63;;;1.53;;
4389;SDS011;2209;48.982;8.406;2023-03-23T09:34:42;2.07;;;1.73;;
4389;SDS011;2209;48.982;8.406;2023-03-23T09:37:05;1.40;;;1.30;;
4389;SDS011;2209;48.982;8.406;2023-03-23T09:39:33;1.60;;;1.50;;
4389;SDS011;2209;48.982;8.406;2023-03-23T09:42:18;3.53;;;1.40;;
4389;SDS011;2209;48.982;8.406;2023-03-23T09:45:04;1.60;;;1.50;;
4389;SDS011;2209;48.982;8.406;2023-03-23T09:47:35;2.53;;;1.73;;
4389;SDS011;2209;48.982;8.406;2023-03-23T09:50:06;1.50;;;1.40;;
4389;SDS011;2209;48.982;8.406;2023-03-23T09:52:33;3.30;;;2.00;;
4389;SDS011;2209;48.982;8.406;2023-03-23T09:54:58;5.90;;;1.67;;
4389;SDS011;2209;48.982;8.406;2023-03-23T09:57:22;3.20;;;1.40;;
4389;SDS011;2209;48.982;8.406;2023-03-23T09:59:51;1.30;;;1.20;;
4389;SDS011;2209;48.982;8.406;2023-03-23T10:02:20;2.13;;;1.30;;
4389;SDS011;2209;48.982;8.406;2023-03-23T10:04:51;1.40;;;1.20;;
4389;SDS011;2209;48.982;8.406;2023-03-23T10:07:17;1.07;;;1.07;;
4389;SDS011;2209;48.982;8.406;2023-03-23T10:09:41;1.57;;;1.47;;
4389;SDS011;2209;48.982;8.406;2023-03-23T10:12:07;1.20;;;1.10;;
4389;SDS011;2209;48.982;8.406;2023-03-23T10:14:38;1.53;;;1.43;;
4389;SDS011;2209;48.982;8.406;2023-03-23T10:17:19;1.57;;;1.47;;
4389;SDS011;2209;48.982;8.406;2023-03-23T10:19:46;1.70;;;1.60;;
4389;SDS011;2209;48.982;8.406;2023-03-23T10:22:16;3.90;;;1.80;;
4389;SDS011;2209;48.982;8.406;2023-03-23T10:24:43;1.87;;;1.77;;
4389;SDS011;2209;48.982;8.406;2023-03-23T10:27:20;1.50;;;1.37;;
4389;SDS011;2209;48.982;8.406;2023-03-23T10:29:49;1.83;;;1.40;;
4389;SDS011;2209;48.982;8.406;2023-03-23T10:32:15;2.30;;;1.10;;
4389;SDS011;2209;48.982;8.406;2023-03-23T10:34:41;1.43;;;1.33;;
4389;SDS011;2209;48.982;8.406;2023-03-23T10:37:09;1.53;;;1.20;;
4389;SDS011;2209;48.982;8.406;2023-03-23T10:39:54;1.53;;;1.30;;
4389;SDS011;2209;48.982;8.406;2023-03-23T10:42:23;3.90;;;1.90;;
4389;SDS011;2209;48.982;8.406;2023-03-23T10:44:46;1.33;;;1.00;;
4389;SDS011;2209;48.982;8.406;2023-03-23T10:47:09;1.60;;;1.43;;
4389;SDS011;2209;48.982;8.406;2023-03-23T10:49:33;1.33;;;1.23;;
4389;SDS011;2209;48.982;8.406;2023-03-23T10:51:59;1.50;;;1.40;;
4389;SDS011;2209;48.982;8.406;2023-03-23T10:54:27;1.37;;;1.27;;
4389;SDS011;2209;48.982;8.406;2023-03-23T10:56:55;1.30;;;1.20;;
4389;SDS011;2209;48.982;8.406;2023-03-23T10:59:18;1.93;;;1.57;;
4389;SDS011;2209;48.982;8.406;2023-03-23T11:01:43;1.60;;;1.30;;
4389;SDS011;2209;48.982;8.406;2023-03-23T11:04:10;1.70;;;1.40;;
4389;SDS011;2209;48.982;8.406;2023-03-23T11:06:34;1.20;;;1.20;;
4389;SDS011;2209;48.982;8.406;2023-03-23T11:09:00;1.60;;;1.43;;
4389;SDS011;2209;48.982;8.406;2023-03-23T11:11:31;1.40;;;1.30;;
4389;SDS011;2209;48.982;8.406;2023-03-23T11:14:00;1.67;;;1.57;;
4389;SDS011;2209;48.982;8.406;2023-03-23T11:16:34;1.73;;;1.63;;
4389;SDS011;2209;48.982;8.406;2023-03-23T11:18:57;1.43;;;1.33;;
4389;SDS011;2209;48.982;8.406;2023-03-23T11:21:20;1.83;;;1.70;;
4389;SDS011;2209;48.982;8.406;2023-03-23T11:23:47;1.60;;;1.50;;
4389;SDS011;2209;48.982;8.406;2023-03-23T11:26:13;2.27;;;2.07;;
4389;SDS011;2209;48.982;8.406;2023-03-23T11:28:38;3.30;;;1.67;;
4389;SDS011;2209;48.982;8.406;2023-03-23T11:31:06;2.67;;;1.70;;
4389;SDS011;2209;48.982;8.406;2023-03-23T11:33:29;2.20;;;1.90;;
4389;SDS011;2209;48.982;8.406;2023-03-23T11:35:54;1.87;;;1.77;;
4389;SDS011;2209;48.982;8.406;2023-03-23T11:38:17;3.63;;;1.80;;
4389;SDS011;2209;48.982;8.406;2023-03-23T11:40:43;1.87;;;1.63;;
4389;SDS011;2209;48.982;8.406;2023-03-23T11:43:13;2.20;;;1.87;;
4389;SDS011;2209;48.982;8.406;2023-03-23T11:45:45;3.73;;;2.53;;
4389;SDS011;2209;48.982;8.406;2023-03-23T11:48:13;2.30;;;2.20;;
4389;SDS011;2209;48.982;8.406;2023-03-23T11:50:49;2.77;;;2.50;;
4389;SDS011;2209;48.982;8.406;2023-03-23T11:53:13;2.80;;;1.80;;
4389;SDS011;2209;48.982;8.406;2023-03-23T11:55:50;1.90;;;1.80;;
4389;SDS011;2209;48.982;8.406;2023-03-23T11:58:17;2.60;;;1.60;;
4389;SDS011;2209;48.982;8.406;2023-03-23T12:00:42;2.33;;;2.13;;
4389;SDS011;2209;48.982;8.406;2023-03-23T12:03:30;3.93;;;2.17;;
4389;SDS011;2209;48.982;8.406;2023-03-23T12:06:06;2.50;;;2.10;;
4389;SDS011;2209;48.982;8.406;2023-03-23T12:08:36;4.07;;;2.40;;
4389;SDS011;2209;48.982;8.406;2023-03-23T12:11:08;2.30;;;2.20;;
4389;SDS011;2209;48.982;8.406;2023-03-23T12:13:48;3.63;;;3.10;;
4389;SDS011;2209;48.982;8.406;2023-03-23T12:16:29;1.70;;;1.60;;
4389;SDS011;2209;48.982;8.406;2023-03-23T12:19:01;2.50;;;1.80;;
4389;SDS011;2209;48.982;8.406;2023-03-23T12:21:28;1.77;;;1.67;;
4389;SDS011;2209;48.982;8.406;2023-03-23T12:23:59;1.73;;;1.50;;
4389;SDS011;2209;48.982;8.406;2023-03-23T12:26:28;1.57;;;1.43;;
4389;SDS011;2209;48.982;8.406;2023-03-23T12:28:59;1.30;;;1.20;;
4389;SDS011;2209;48.982;8.406;2023-03-23T12:31:38;1.43;;;1.20;;
4389;SDS011;2209;48.982;8.406;2023-03-23T12:34:10;2.20;;;1.40;;
4389;SDS011;2209;48.982;8.406;2023-03-23T12:36:43;1.70;;;1.43;;
4389;SDS011;2209;48.982;8.406;2023-03-23T12:41:59;1.20;;;1.10;;
4389;SDS011;2209;48.982;8.406;2023-03-23T12:44:30;1.63;;;1.37;;
4389;SDS011;2209;48.982;8.406;2023-03-23T12:47:07;1.10;;;1.10;;
4389;SDS011;2209;48.982;8.406;2023-03-23T12:49:48;3.03;;;1.63;;
4389;SDS011;2209;48.982;8.406;2023-03-23T12:52:16;1.80;;;1.70;;
4389;SDS011;2209;48.982;8.406;2023-03-23T12:54:45;1.77;;;1.30;;
4389;SDS011;2209;48.982;8.406;2023-03-23T12:57:16;4.23;;;1.50;;
4389;SDS011;2209;48.982;8.406;2023-03-23T12:59:43;1.63;;;1.20;;
4389;SDS011;2209;48.982;8.406;2023-03-23T13:02:12;1.30;;;1.20;;
4389;SDS011;2209;48.982;8.406;2023-03-23T13:04:43;1.70;;;1.60;;
4389;SDS011;2209;48.982;8.406;2023-03-23T13:07:12;2.40;;;1.77;;
4389;SDS011;2209;48.982;8.406;2023-03-23T13:09:43;1.40;;;1.30;;
4389;SDS011;2209;48.982;8.406;2023-03-23T13:12:10;1.40;;;1.30;;
4389;SDS011;2209;48.982;8.406;2023-03-23T13:14:36;1.63;;;1.50;;
4389;SDS011;2209;48.982;8.406;2023-03-23T13:17:05;1.30;;;1.20;;
4389;SDS011;2209;48.982;8.406;2023-03-23T13:19:34;2.20;;;2.00;;
4389;SDS011;2209;48.982;8.406;2023-03-23T13:22:07;2.17;;;1.40;;
4389;SDS011;2209;48.982;8.406;2023-03-23T13:24:36;4.53;;;1.63;;
4389;SDS011;2209;48.982;8.406;2023-03-23T13:27:04;2.37;;;1.80;;
4389;SDS011;2209;48.982;8.406;2023-03-23T13:29:32;2.00;;;1.80;;
4389;SDS011;2209;48.982;8.406;2023-03-23T13:32:04;2.20;;;1.73;;
4389;SDS011;2209;48.982;8.406;2023-03-23T13:34:29;1.33;;;1.27;;
4389;SDS011;2209;48.982;8.406;2023-03-23T13:36:54;1.40;;;1.30;;
4389;SDS011;2209;48.982;8.406;2023-03-23T13:39:19;2.10;;;1.70;;
4389;SDS011;2209;48.982;8.406;2023-03-23T13:41:48;4.23;;;1.83;;
4389;SDS011;2209;48.982;8.406;2023-03-23T13:44:26;1.53;;;1.43;;
4389;SDS011;2209;48.982;8.406;2023-03-23T13:47:06;1.97;;;1.87;;
4389;SDS011;2209;48.982;8.406;2023-03-23T13:49:31;2.20;;;2.00;;
4389;SDS011;2209;48.982;8.406;2023-03-23T13:51:59;2.20;;;2.10;;
4389;SDS011;2209;48.982;8.406;2023-03-23T13:54:29;2.57;;;2.37;;
4389;SDS011;2209;48.982;8.406;2023-03-23T13:56:54;2.10;;;2.00;;
4389;SDS011;2209;48.982;8.406;2023-03-23T13:59:28;4.70;;;2.60;;
4389;SDS011;2209;48.982;8.406;2023-03-23T14:01:55;4.13;;;3.73;;
4389;SDS011;2209;48.982;8.406;2023-03-23T14:04:19;11.43;;;2.60;;
4389;SDS011;2209;48.982;8.406;2023-03-23T14:06:42;2.87;;;2.57;;
4389;SDS011;2209;48.982;8.406;2023-03-23T14:09:06;8.60;;;2.77;;
4389;SDS011;2209;48.982;8.406;2023-03-23T14:11:44;5.10;;;2.80;;
4389;SDS011;2209;48.982;8.406;2023-03-23T14:14:13;3.40;;;2.83;;
4389;SDS011;2209;48.982;8.406;2023-03-23T14:16:40;2.50;;;2.30;;
4389;SDS011;2209;48.982;8.406;2023-03-23T14:19:04;4.60;;;2.93;;
4389;SDS011;2209;48.982;8.406;2023-03-23T14:21:40;5.27;;;2.87;;
4389;SDS011;2209;48.982;8.406;2023-03-23T14:24:05;3.10;;;2.50;;
4389;SDS011;2209;48.982;8.406;2023-03-23T14:26:33;3.30;;;2.13;;
4389;SDS011;2209;48.982;8.406;2023-03-23T14:28:58;2.00;;;1.87;;
4389;SDS011;2209;48.982;8.406;2023-03-23T14:31:22;5.50;;;2.70;;
4389;SDS011;2209;48.982;8.406;2023-03-23T14:33:46;2.47;;;2.27;;
4389;SDS011;2209;48.982;8.406;2023-03-23T14:36:10;3.90;;;2.10;;
4389;SDS011;2209;48.982;8.406;2023-03-23T14:38:32;2.37;;;2.17;;
4389;SDS011;2209;48.982;8.406;2023-03-23T14:40:55;9.80;;;2.50;;
4389;SDS011;2209;48.982;8.406;2023-03-23T14:43:22;2.20;;;2.10;;
4389;SDS011;2209;48.982;8.406;2023-03-23T14:45:47;6.07;;;2.70;;
4389;SDS011;2209;48.982;8.406;2023-03-23T14:48:13;2.90;;;2.70;;
4389;SDS011;2209;48.982;8.406;2023-03-23T14:50:37;2.47;;;2.27;;
4389;SDS011;2209;48.982;8.406;2023-03-23T14:53:07;2.57;;;2.37;;
4389;SDS011;2209;48.982;8.406;2023-03-23T14:55:33;2.43;;;2.03;;
4389;SDS011;2209;48.982;8.406;2023-03-23T14:57:55;5.30;;;2.40;;
4389;SDS011;2209;48.982;8.406;2023-03-23T15:00:19;3.93;;;2.90;;
4389;SDS011;2209;48.982;8.406;2023-03-23T15:02:46;3.00;;;2.70;;
4389;SDS011;2209;48.982;8.406;2023-03-23T15:05:11;3.07;;;2.77;;
4389;SDS011;2209;48.982;8.406;2023-03-23T15:07:37;2.23;;;2.00;;
4389;SDS011;2209;48.982;8.406;2023-03-23T15:10:00;5.40;;;2.87;;